Terminal Aerodrome Forecast
Issued by NWS Lake Charles, LA

Home | Current Version | Previous Version | Text Only | Print | Product List | Glossary On
Versions: 1 2 3 4 5 6 7 8 9 10 11 12 13 14 15 16
000
FTUS44 KLCH 180500
TAFBPT
TAF
KBPT 180521Z 1806/1906 10006KT P6SM SCT020 BKN050
     FM181200 11008KT P6SM VCSH BKN025 OVC050
     FM181800 12008KT P6SM VCSH OVC025 PROB30 1818/1824 5SM -SHRA BR
      OVC015
     FM190000 09006KT 2SM -RA BR OVC007=

USA.gov is the U.S. government's official web portal to all federal, state and local government web resources and services.